Thomas Murray

Главный скаут - West Ham United
16 Сен 2027
Четверг
Продолжить

Характер

Адаптивность (4) Амбиции (13) Скандальность (16) Верность (6) Стрессоустойчивость (12) Профессионализм (14) Благородство (2) Темперамент (9)

Профиль

Стиль управления Демократичный
Лицензия Континентальная Pro
Решительность 14
Управление людьми 8
Мотивация 9
Дисциплина 7
Удовлетворённость
95%
Усталость
0%
Должность Главный скаут
Зарплата 111.6K в нед.
Контракт 14.03.2030

Производительность

Поведение Хорошее
Эффективность тренировок
50%
Развитие игроков
70%
Профилактика травм
40%
Тактическая реализация
45%

Недавние события

Участвовал в селекционном совещании только что
Участвовал в селекционном совещании только что
Рекомендовал трансферную цель только что
Рекомендовал трансферную цель только что
Рекомендовал трансферную цель 7 дн. назад
Рекомендовал трансферную цель 7 дн. назад
Рекомендовал трансферную цель 7 дн. назад
Рекомендовал трансферную цель 7 дн. назад

Текущее наблюдение

168
Игрок Клуб Статус Способность Уверенность Наблюдений Последнее наблюдение Последний голос
Jorrel Hato Chelsea Активный 158 / 154 40% 3 30.08.2027 -
Harrison Armstrong Everton Активный 126 / 134 40% 1 30.08.2027 -
Jamie Cumming Oxford United Активный 127 / 134 72% 1 16.08.2027 За
Leonardo Mendicino Bari Активный 113 / 129 40% 1 05.08.2027 -
Dayann Methalie Aston Villa Активный 137 / 148 40% 1 05.08.2027 -
Davide Bartesaghi AC Milan Активный 135 / 134 40% 2 04.08.2027 -
Lewis Miley Chelsea Активный 150 / 159 40% 3 04.08.2027 -
Christ Inao Oulaï Fiorentina Активный 133 / 141 40% 1 01.08.2027 -
Sascha Britschgi Padova Активный 128 / 129 40% 1 01.08.2027 -
Freddy Murillo Valencia Активный 118 / 125 40% 1 01.08.2027 -
Caleb Yirenkyi Coventry City Активный 136 / 153 40% 3 31.07.2027 -
Johan Manzambi Newcastle United Активный 141 / 149 40% 2 31.07.2027 -
Julián Bazán Philadelphia Union Активный 115 / 122 40% 1 31.07.2027 -
Christos Mouzakitis Hull City Активный 130 / 149 40% 2 29.07.2027 -
Martim Cunha Porto Активный 112 / 113 40% 2 29.07.2027 -
Riley Owen Trento Активный 105 / 119 40% 3 29.07.2027 -
Ernie Weaver AFC Wimbledon Активный 118 / 120 40% 2 28.07.2027 -
Matías Gómez Granada Активный 110 / 130 40% 2 28.07.2027 -
Jofre Torrents Ajax Активный 126 / 128 40% 2 26.07.2027 -
Juan Giménez Celta Активный 119 / 125 40% 1 26.07.2027 -
Rodrigo Gomes Wolverhampton Активный 139 / 152 40% 12 22.07.2027 -
Juanlu Bournemouth Активный 157 / 151 40% 6 22.07.2027 -
Yehor Yarmoliuk Brentford Активный 159 / 161 40% 9 22.07.2027 -
Xavi Simons Tottenham Активный 166 / 149 40% 9 05.07.2027 -
Yankuba Minteh Brighton Активный 145 / 145 40% 8 05.07.2027 -
Jesús Rodríguez Como Активный 146 / 152 40% 2 21.06.2027 -
Yeremy Pino Crystal Palace Активный 150 / 144 40% 8 02.06.2027 -
Toby Collyer West Bromwich Albion Активный 124 / 141 40% 2 02.06.2027 -
Scott Twine Bristol City Активный 125 / 131 69% 1 02.06.2027 За
Callum Hudson-Odoi Nottingham Forest Активный 158 / 142 40% 3 31.05.2027 -
Léo Scienza Southampton Активный 146 / 141 40% 4 31.05.2027 -
Kenan Yıldız Juventus Активный 165 / 168 40% 4 31.05.2027 -
Shea Charles Southampton Активный 137 / 140 40% 6 29.05.2027 -
Malick Fofana Sunderland Активный 150 / 137 40% 5 29.05.2027 -
Ilyas Ansah Hull City Активный 135 / 134 40% 7 28.05.2027 -
Jacques Ekomié Wrexham Активный 121 / 125 40% 3 27.05.2027 -
Adam Wharton Crystal Palace Активный 160 / 144 40% 4 27.05.2027 -
Mohamed-Ali Cho Hull City Активный 136 / 129 40% 6 26.05.2027 -
Assane Diao Lazio Активный 152 / 154 40% 5 26.05.2027 -
Othmane Maamma Watford Активный 120 / 121 40% 3 25.05.2027 -
Tom Fellows Southampton Активный 139 / 134 40% 5 25.05.2027 -
Tommy Conway Middlesbrough Активный 131 / 122 40% 6 24.05.2027 -
Maximo Ingravidi Colón Активный 108 / 108 40% 1 24.05.2027 -
Markus Jensen Nacional Активный 103 / 119 40% 1 24.05.2027 -
Borna Knezović Casarano Активный 100 / 104 40% 1 24.05.2027 -
Gonçalo Oliveira Benfica Активный 109 / 110 40% 2 22.05.2027 -
Matías Soulé AS Roma Активный 158 / 163 40% 10 20.05.2027 -
Carlos Alcaraz Everton Активный 142 / 143 40% 4 19.05.2027 -
Amad Manchester United Активный 152 / 158 40% 6 18.05.2027 -
Francisco Conceição Juventus Активный 152 / 161 40% 5 16.05.2027 -
Nicolas Verkooijen PSV Активный 113 / 121 40% 2 15.05.2027 -
Francesco Pio Esposito Inter Активный 146 / 146 40% 1 15.05.2027 -
Stefanos Tzimas Brighton Активный 140 / 136 40% 1 15.05.2027 -
Jack McGlynn Stoke City Активный 125 / 131 40% 3 11.05.2027 -
Antoni Milambo Brentford Активный 136 / 152 40% 1 11.05.2027 -
Yannik Wagner Heidenheim Активный 105 / 103 40% 2 10.05.2027 -
Ognjen Bondžulić Mladost Lucani Активный 97 / 106 40% 1 10.05.2027 -
Tomáš Rigo Stoke City Активный 136 / 127 40% 3 07.05.2027 -
Valentin Atangana Al-Ahli Активный 138 / 141 40% 3 05.05.2027 -
Isaac Price West Bromwich Albion Активный 120 / 132 40% 2 03.05.2027 -
Kevin Fulham Активный 149 / 156 40% 4 02.05.2027 -
Morgan Rogers Chelsea Активный 162 / 158 40% 15 01.05.2027 -
Darryl Bakola Padova Активный 103 / 109 40% 3 27.04.2027 -
Hugo Ekitiké Liverpool Активный 161 / 165 40% 2 23.04.2027 -
Miloš Kerkez Liverpool Активный 153 / 159 40% 5 22.04.2027 -
Andre Brooks Sheffield United Активный 120 / 122 40% 2 21.04.2027 -
Tiago Freitas Benfica Активный 103 / 111 40% 2 21.04.2027 -
David Ozoh Derby County Активный 118 / 120 40% 1 21.04.2027 -
Aaron Hickey Brentford Активный 149 / 149 40% 1 20.04.2027 -
Agustín Ruberto River Plate Активный 124 / 119 40% 1 20.04.2027 -
Thomas Waddingham Portsmouth Активный 108 / 115 40% 1 20.04.2027 -
Dylan Lawlor Cardiff City Активный 108 / 123 40% 1 14.04.2027 -
Joe Gelhardt Hull City Активный 129 / 136 40% 2 13.04.2027 -
Mohamed Belloumi Hull City Активный 137 / 134 40% 7 11.04.2027 -
Gonzalo Fulham Активный 150 / 154 40% 6 09.04.2027 -
Josh King Chelsea Активный 142 / 142 40% 2 08.04.2027 -
James Dornelly Peterborough United Активный 95 / 98 40% 1 06.04.2027 -
Kwadwo Baah Watford Активный 137 / 123 40% 1 04.04.2027 -
Jack Hinshelwood Brighton Активный 149 / 138 40% 2 02.04.2027 -
Keagan Phiri Platinum Stars Активный 105 / 95 40% 1 02.04.2027 -
Ryan Gravenberch Liverpool Активный 166 / 154 40% 3 31.03.2027 -
Leo Castledine Middlesbrough Активный 130 / 123 40% 2 24.03.2027 -
Bradley Barcola Liverpool Активный 159 / 165 40% 11 22.03.2027 -
Kristoffer Lund Birmingham Активный 120 / 128 40% 1 20.03.2027 -
Hlompho Lorch Ajax Cape Town Активный 100 / 110 40% 2 18.03.2027 -
Matvey Kislyak CSKA Moscow Активный 127 / 145 40% 1 18.03.2027 -
Tino Livramento Newcastle United Активный 156 / 159 40% 3 15.03.2027 -
Abdul Fatawu Leicester City Активный 131 / 129 40% 1 15.03.2027 -
Hélio Varela Maccabi Tel Aviv Активный 131 / 127 40% 2 13.03.2027 -
Noah Sadiki Sunderland Активный 137 / 140 40% 1 13.03.2027 -
Cemran Dansin Orlando Pirates Активный 113 / 120 40% 2 12.03.2027 -
Ibrahim Maza Bayer Leverkusen Активный 144 / 158 40% 1 11.03.2027 -
Curtis Jones Inter Активный 161 / 160 40% 1 03.01.2027 -
Jan Paul van Hecke Tottenham Активный 156 / 166 40% 1 03.01.2027 -
Quinten Timber Crystal Palace Активный 155 / 156 40% 1 03.01.2027 -
Luiz Henrique West Ham United Переговоры 142 / 143 68% 1 01.01.2027 За
Marcel Ruiz RC Lens Активный 140 / 141 68% 1 01.01.2027 За
Borja Sainz Fiorentina Активный 144 / 145 66% 1 01.01.2027 За
Dmytro Riznyk Cruz Azul Переговоры 137 / 137 66% 1 01.01.2027 За
Mason Mount Manchester United Активный 154 / 149 40% 4 31.12.2026 -
Brais Méndez Columbus Crew Активный 152 / 152 40% 6 30.12.2026 -
Nicolas Jackson Aston Villa Активный 146 / 153 40% 4 30.12.2026 -
Kiernan Dewsbury-Hall Everton Активный 159 / 137 40% 4 29.12.2026 -
Carlos Vicente Birmingham Активный 138 / 135 40% 9 28.12.2026 Наблюдать
Josep Martínez Inter Активный 143 / 147 40% 3 28.12.2026 -
David Raya Arsenal Активный 154 / 161 40% 3 28.12.2026 -
Adrien Truffert Bournemouth Активный 155 / 155 40% 3 27.12.2026 -
Hany Mukhtar Spezia Активный 141 / 129 40% 5 27.12.2026 -
Cody Gakpo Liverpool Активный 154 / 165 40% 11 26.12.2026 -
Gabriel Martinelli Brighton Активный 166 / 160 40% 11 26.12.2026 -
Matt O'Riley Brighton Активный 148 / 136 40% 4 26.12.2026 -
Harry Wilson Leeds United Активный 148 / 137 40% 3 26.12.2026 -
Kai Havertz Arsenal Активный 167 / 161 40% 8 23.12.2026 -
Steven Bergwijn Al-Ittihad Активный 146 / 139 40% 4 22.12.2026 -
Jérémy Doku Manchester City Активный 175 / 157 40% 6 22.12.2026 -
Martin Ødegaard Arsenal Активный 186 / 183 40% 7 21.12.2026 -
Iliman N'Diaye Everton Активный 157 / 146 40% 8 20.12.2026 -
Sandro Tonali Tottenham Активный 180 / 174 40% 4 17.12.2026 -
Justin Bijlow Genoa Активный 148 / 145 40% 1 17.12.2026 -
Senne Lammens Manchester United Активный 142 / 146 40% 4 15.12.2026 -
Arijanet Murić Sassuolo Активный 136 / 145 40% 2 15.12.2026 -
Nico González Newcastle United Активный 162 / 170 40% 6 13.12.2026 -
Federico Chiesa Liverpool Активный 149 / 147 40% 2 13.12.2026 -
Giacomo Raspadori Atalanta Активный 150 / 142 40% 2 13.12.2026 -
Alexis Mac Allister Liverpool Активный 155 / 160 40% 3 10.12.2026 -
Bryan Mbeumo Manchester United Активный 165 / 163 40% 3 10.12.2026 -
Dušan Vlahović Juventus Активный 167 / 160 40% 1 10.12.2026 -
Martín Zubimendi Arsenal Активный 161 / 155 40% 1 04.12.2026 -
Gabriel Jesus Barcelona Активный 155 / 154 40% 5 01.12.2026 -
Marcus Rashford Manchester United Активный 166 / 149 40% 1 01.12.2026 -
Robin Roefs Sunderland Активный 144 / 150 40% 4 30.11.2026 -
Dean Henderson Crystal Palace Активный 150 / 155 40% 3 30.11.2026 -
Anatolii Trubin Juventus Активный 153 / 150 40% 1 30.11.2026 -
Mohammed Kudus Tottenham Активный 153 / 153 40% 4 28.11.2026 -
Thiago Brentford Активный 140 / 153 40% 1 28.11.2026 -
Declan Rice Arsenal Активный 181 / 187 40% 4 25.11.2026 -
Alexey Miranchuk St. Gallen Активный 138 / 146 40% 3 24.11.2026 -
Antoine Semenyo Manchester City Активный 159 / 157 40% 2 15.11.2026 -
Óscar Mingueza Crystal Palace Активный 156 / 152 40% 1 11.11.2026 -
Matheus Cunha Manchester United Активный 154 / 147 40% 3 09.11.2026 -
Razvan Balasa Crvena Zvezda Активный 150 / 152 40% 2 09.11.2026 -
Victor Osimhen Manchester United Активный 152 / 165 40% 3 07.11.2026 -
Leroy Sané Galatasaray Активный 155 / 161 40% 2 07.11.2026 -
Vinícius Júnior Arsenal Активный 171 / 167 40% 2 06.11.2026 -
Phil Foden Manchester City Активный 182 / 176 40% 3 02.11.2026 -
Breel Embolo Atlanta United FC Активный 129 / 135 40% 4 01.11.2026 -
Dominic Solanke Tottenham Активный 143 / 146 40% 2 31.10.2026 -
Jadon Sancho Manchester United Активный 142 / 142 40% 1 31.10.2026 -
Georginio Rutter Brighton Активный 140 / 155 40% 1 29.10.2026 -
Cole Palmer Chelsea Активный 181 / 172 40% 2 27.10.2026 -
Luis Suárez Chelsea Активный 145 / 148 40% 3 23.10.2026 -
Predrag Rajković Racing Genk Активный 141 / 141 40% 1 22.10.2026 -
Amine Adli Bournemouth Активный 143 / 150 40% 1 19.10.2026 -
Reece James Chelsea Активный 175 / 174 40% 4 16.10.2026 -
Ángel Correa River Plate Активный 141 / 129 40% 3 15.10.2026 -
Ebere Eze Arsenal Активный 149 / 161 40% 1 12.10.2026 -
Alexander Isak Liverpool Активный 166 / 167 40% 5 10.10.2026 -
James Trafford Leeds United Активный 146 / 145 40% 1 08.10.2026 -
Jean-Philippe Mateta Crystal Palace Активный 145 / 149 40% 2 03.10.2026 -
Barış Alper Yılmaz Galatasaray Активный 137 / 139 40% 1 03.10.2026 -
James Maddison Tottenham Активный 160 / 159 40% 1 03.10.2026 -
Mauro Arambarri River Plate Активный 155 / 167 40% 1 02.10.2026 -
Oussama Idrissi Pachuca Активный 143 / 145 40% 1 02.10.2026 -
Orbelín Pineda Monterrey Активный 139 / 138 40% 1 29.09.2026 -
Allan Saint-Maximin Charlotte Football Club Активный 130 / 144 40% 2 21.09.2026 -
Sergio Reguilón Inter Miami CF Активный 143 / 124 40% 1 17.09.2026 -
Bruno Guimarães Arsenal Активный 174 / 160 40% 3 16.09.2026 -
João Pedro Chelsea Активный 142 / 144 40% 1 09.09.2026 -